Time;durP1;ratioP1;P1;durP2;ratioP2;P2;SDS_P1;SDS_P2;PMS_P1;PMS_P2;Temp;Humidity;BMP_temperature;BMP_pressure;BME280_temperature;BME280_humidity;BME280_pressure;Samples;Min_cycle;Max_cycle;Signal;HPM_P1;HPM_P2
2023/06/11 00:01:26;;;;;;;7.95;4.20;;;;;;;19.87;47.85;101460.75;10372972;28;20037;-77
2023/06/11 00:06:27;;;;;;;8.35;4.70;;;;;;;19.82;47.25;101461.50;10357167;28;20034;-78
2023/06/11 00:11:29;;;;;;;4.50;4.13;;;;;;;19.77;47.89;101460.56;10357219;28;20473;-78
2023/06/11 00:16:32;;;;;;;13.60;4.63;;;;;;;19.70;47.52;101461.53;10373933;28;20033;-78
2023/06/11 00:21:40;;;;;;;4.65;4.22;;;;;;;19.64;48.07;101462.50;10373537;28;20476;-78
2023/06/11 00:26:44;;;;;;;6.03;4.55;;;;;;;19.61;47.58;101465.72;10355822;28;20587;-77
2023/06/11 00:32:00;;;;;;;7.30;5.13;;;;;;;19.55;47.55;101461.19;10355782;28;20065;-78
2023/06/11 00:37:01;;;;;;;4.70;4.30;;;;;;;19.52;47.39;101465.25;10371606;28;20121;-78
2023/06/11 00:42:10;;;;;;;5.85;4.00;;;;;;;19.52;47.50;101458.94;10371466;28;20133;-78
2023/06/11 00:47:11;;;;;;;4.88;4.35;;;;;;;19.48;47.88;101457.75;10356264;28;20041;-78
2023/06/11 00:52:13;;;;;;;4.55;4.15;;;;;;;19.46;48.22;101449.78;10371937;28;20531;-78
2023/06/11 00:57:17;;;;;;;6.00;5.10;;;;;;;19.45;50.93;101453.56;10354023;28;20033;-78
2023/06/11 01:02:44;;;;;;;6.80;5.53;;;;;;;19.42;52.72;101448.56;10387165;28;20034;-78
2023/06/11 01:07:50;;;;;;;;;;;;;;;19.43;52.34;101442.00;10386790;28;20132;-78
2023/06/11 01:13:01;;;;;;;6.88;5.35;;;;;;;19.33;52.80;101436.28;10370797;28;19959;-78
2023/06/11 01:18:08;;;;;;;7.40;5.40;;;;;;;19.26;52.02;101430.09;10371148;28;20041;-77
2023/06/11 01:23:50;;;;;;;16.95;5.85;;;;;;;19.21;51.68;101436.34;10369688;28;20370;-78
2023/06/11 01:28:54;;;;;;;4.70;4.30;;;;;;;19.19;51.41;101433.00;10358422;28;20148;-78
2023/06/11 01:33:56;;;;;;;5.90;5.07;;;;;;;19.10;51.19;101428.13;10353666;28;20104;-78
2023/06/11 01:38:58;;;;;;;7.90;5.25;;;;;;;19.05;51.51;101431.59;10386028;28;20038;-78
2023/06/11 01:44:02;;;;;;;7.60;5.03;;;;;;;18.99;51.86;101433.38;10370281;28;20049;-78
2023/06/11 01:49:03;;;;;;;7.30;5.80;;;;;;;18.97;51.43;101427.28;10352695;28;20045;-78
2023/06/11 01:54:04;;;;;;;6.85;4.93;;;;;;;18.86;51.33;101428.16;10368761;28;20465;-78
2023/06/11 01:59:17;;;;;;;5.00;4.50;;;;;;;18.77;51.73;101430.41;10369102;28;20558;-78
2023/06/11 02:04:23;;;;;;;5.22;4.55;;;;;;;18.73;52.36;101431.13;10368422;28;20516;-78
2023/06/11 02:09:27;;;;;;;5.53;4.55;;;;;;;18.72;54.27;101427.53;10336517;28;20052;-77
2023/06/11 02:14:30;;;;;;;6.88;5.82;;;;;;;18.79;54.51;101428.28;10336399;28;20077;-78
2023/06/11 02:19:30;;;;;;;6.78;5.80;;;;;;;18.83;55.28;101433.28;10337155;28;20129;-71
2023/06/11 02:24:31;;;;;;;6.60;5.88;;;;;;;18.85;56.85;101433.88;10372132;28;20038;-71
2023/06/11 02:29:31;;;;;;;5.97;5.45;;;;;;;18.85;60.05;101431.13;10371927;28;20088;-71
2023/06/11 02:34:32;;;;;;;5.53;5.13;;;;;;;18.86;60.22;101436.38;10372369;28;20042;-70
2023/06/11 02:39:32;;;;;;;8.05;6.68;;;;;;;18.79;62.00;101433.78;10371802;28;20195;-71
2023/06/11 02:44:34;;;;;;;9.73;6.35;;;;;;;18.80;63.20;101449.16;10387734;28;20082;-72
2023/06/11 02:49:35;;;;;;;6.90;6.30;;;;;;;18.76;62.60;101449.84;10371948;28;20446;-71
2023/06/11 02:54:35;;;;;;;8.43;6.20;;;;;;;18.72;61.89;101444.00;10371163;28;20038;-71
2023/06/11 02:59:35;;;;;;;13.90;8.23;;;;;;;18.63;67.09;101437.16;10387760;28;20026;-70
2023/06/11 03:04:36;;;;;;;6.65;5.55;;;;;;;18.58;68.67;101429.66;10355272;28;20037;-72
2023/06/11 03:09:36;;;;;;;8.80;6.80;;;;;;;18.51;69.19;101428.97;10372494;28;20049;-71
2023/06/11 03:14:37;;;;;;;11.13;6.78;;;;;;;18.47;69.30;101429.66;10378782;28;20041;-71
2023/06/11 03:19:37;;;;;;;7.55;6.63;;;;;;;18.46;67.62;101436.22;10378436;28;20171;-72
2023/06/11 03:24:38;;;;;;;7.53;6.43;;;;;;;18.39;72.66;101428.09;10397092;28;20096;-71
2023/06/11 03:29:38;;;;;;;7.43;6.75;;;;;;;18.39;68.10;101436.31;10384647;28;20077;-72
2023/06/11 03:34:38;;;;;;;8.93;6.60;;;;;;;18.33;66.43;101429.03;10366589;28;20034;-71
2023/06/11 03:39:39;;;;;;;9.50;7.65;;;;;;;18.29;64.68;101445.13;10394520;28;20037;-71
2023/06/11 03:44:39;;;;;;;6.72;6.22;;;;;;;18.21;63.22;101437.25;10379270;28;20034;-70
2023/06/11 03:49:40;;;;;;;7.55;6.75;;;;;;;18.24;63.50;101442.25;10361682;28;20341;-71
2023/06/11 03:54:40;;;;;;;13.38;7.53;;;;;;;18.26;64.49;101461.22;10380314;28;20034;-72
2023/06/11 03:59:41;;;;;;;12.55;7.55;;;;;;;18.33;67.86;101450.97;10376974;28;20120;-70
2023/06/11 04:04:41;;;;;;;8.85;8.02;;;;;;;18.38;65.53;101450.25;10378924;28;20125;-70
2023/06/11 04:09:41;;;;;;;11.45;8.55;;;;;;;18.42;64.86;101446.00;10377298;28;20063;-71
2023/06/11 04:14:42;;;;;;;12.32;8.75;;;;;;;18.46;64.00;101449.94;10377619;28;20057;-71
2023/06/11 04:19:42;;;;;;;15.20;7.90;;;;;;;18.53;64.04;101450.66;10376460;28;20053;-71
2023/06/11 04:24:43;;;;;;;11.80;7.65;;;;;;;18.63;66.37;101450.88;10378834;28;20373;-71
2023/06/11 04:29:44;;;;;;;8.77;7.93;;;;;;;18.78;70.51;101462.25;10392408;28;20050;-72
2023/06/11 04:34:48;;;;;;;8.77;7.95;;;;;;;18.92;68.96;101464.75;10375999;28;20105;-71
2023/06/11 04:39:48;;;;;;;13.95;8.80;;;;;;;19.60;70.15;101472.28;10375830;28;20492;-71
2023/06/11 04:44:49;;;;;;;8.52;7.82;;;;;;;20.49;70.51;101462.69;10376486;28;20045;-71
2023/06/11 04:49:52;;;;;;;10.00;8.93;;;;;;;21.18;67.41;101463.19;10376698;28;20121;-71
2023/06/11 04:54:55;;;;;;;9.45;8.50;;;;;;;21.62;67.05;101460.47;10374923;28;20133;-71
2023/06/11 04:59:55;;;;;;;11.02;9.10;;;;;;;21.97;66.39;101456.44;10358476;28;20034;-71
2023/06/11 05:04:57;;;;;;;24.20;9.48;;;;;;;22.35;67.19;101468.41;10375560;28;20113;-72
2023/06/11 05:09:58;;;;;;;13.80;9.93;;;;;;;22.63;65.14;101450.72;10374822;28;20368;-71
2023/06/11 05:14:59;;;;;;;10.60;9.23;;;;;;;23.05;66.17;101460.97;10357114;28;20061;-71
2023/06/11 05:19:59;;;;;;;14.48;9.45;;;;;;;23.46;65.14;101462.00;10375986;28;20422;-71
2023/06/11 05:25:00;;;;;;;15.73;8.88;;;;;;;23.76;64.05;101466.81;10373571;28;20104;-72
2023/06/11 05:30:02;;;;;;;9.40;8.50;;;;;;;24.05;62.40;101474.63;10375878;28;20188;-70
2023/06/11 05:35:02;;;;;;;11.63;9.68;;;;;;;24.29;61.29;101475.78;10385499;28;20397;-71
2023/06/11 05:40:03;;;;;;;11.20;9.05;;;;;;;24.55;60.38;101482.19;10383677;28;20140;-69
2023/06/11 05:45:05;;;;;;;11.88;10.40;;;;;;;24.99;58.88;101480.75;10373490;28;20397;-71
2023/06/11 05:50:06;;;;;;;9.65;8.32;;;;;;;25.24;57.98;101479.91;10372465;28;20125;-69
2023/06/11 05:55:07;;;;;;;9.25;8.50;;;;;;;25.45;56.92;101470.38;10374545;28;20151;-70
2023/06/11 06:00:12;;;;;;;10.00;9.05;;;;;;;25.72;55.79;101474.69;10374240;28;20061;-70
2023/06/11 06:05:13;;;;;;;17.23;9.20;;;;;;;26.10;54.31;101470.34;10374489;28;20034;-71
2023/06/11 06:10:13;;;;;;;11.32;10.30;;;;;;;26.61;53.39;101475.50;10374092;28;20038;-70
2023/06/11 06:15:14;;;;;;;13.35;9.23;;;;;;;27.04;52.30;101477.59;10339738;28;20026;-71
2023/06/11 06:20:14;;;;;;;9.95;9.07;;;;;;;27.24;50.68;101476.56;10373578;28;20180;-69
2023/06/11 06:25:15;;;;;;;9.43;8.55;;;;;;;27.33;50.31;101474.78;10373175;28;20045;-71
2023/06/11 06:30:16;;;;;;;8.82;8.15;;;;;;;27.79;49.74;101468.63;10387308;28;20523;-70
2023/06/11 06:35:16;;;;;;;9.93;9.02;;;;;;;28.02;48.68;101486.41;10338328;28;20408;-71
2023/06/11 06:40:17;;;;;;;8.65;7.90;;;;;;;28.18;48.24;101485.06;10371476;28;20046;-71
2023/06/11 06:45:17;;;;;;;8.57;7.68;;;;;;;28.51;47.26;101488.72;10391506;28;20053;-71
2023/06/11 06:50:18;;;;;;;7.80;7.20;;;;;;;28.44;46.33;101482.72;10380752;28;20389;-71
2023/06/11 06:55:18;;;;;;;10.60;9.30;;;;;;;28.55;46.25;101485.31;10381402;28;20064;-70
2023/06/11 07:00:19;;;;;;;12.07;9.70;;;;;;;29.05;46.45;101480.00;10378195;28;20045;-70
2023/06/11 07:05:19;;;;;;;9.95;8.77;;;;;;;29.62;44.77;101480.53;10395569;28;20065;-70
2023/06/11 07:10:20;;;;;;;9.43;8.63;;;;;;;29.69;43.51;101489.28;10378204;28;20038;-70
2023/06/11 07:15:20;;;;;;;10.57;9.43;;;;;;;29.88;43.57;101492.78;10362105;28;20034;-70
2023/06/11 07:20:21;;;;;;;9.07;8.18;;;;;;;29.95;42.95;101489.53;10379502;28;20100;-69
2023/06/11 07:25:23;;;;;;;19.70;9.00;;;;;;;29.89;43.43;101497.22;10377596;28;20432;-72
2023/06/11 07:30:24;;;;;;;9.55;8.75;;;;;;;30.31;42.27;101494.31;10377976;28;20057;-71
2023/06/11 07:35:25;;;;;;;9.60;8.70;;;;;;;30.75;41.81;101489.84;10377881;28;20049;-70
2023/06/11 07:40:25;;;;;;;9.27;8.35;;;;;;;30.86;41.51;101496.03;10360760;28;20045;-72
2023/06/11 07:45:26;;;;;;;11.50;8.15;;;;;;;31.18;41.36;101487.31;10376300;28;20034;-70
2023/06/11 07:50:26;;;;;;;11.40;9.43;;;;;;;31.31;40.66;101479.13;10377869;28;20037;-72
2023/06/11 07:55:27;;;;;;;11.77;9.05;;;;;;;31.50;40.20;101488.09;10375002;28;20052;-74
2023/06/11 08:00:27;;;;;;;10.05;9.15;;;;;;;31.80;40.73;101488.31;10392573;28;20061;-73
2023/06/11 08:05:29;;;;;;;8.85;8.07;;;;;;;32.18;39.33;101480.94;10376066;28;20052;-74
2023/06/11 08:10:31;;;;;;;10.52;9.15;;;;;;;32.48;39.23;101478.31;10391996;28;20342;-70
2023/06/11 08:15:32;;;;;;;8.55;7.78;;;;;;;32.65;39.44;101475.47;10375007;28;20069;-68
2023/06/11 08:20:33;;;;;;;12.07;8.85;;;;;;;32.99;37.87;101479.34;10375485;28;20148;-70
2023/06/11 08:25:33;;;;;;;11.38;8.70;;;;;;;33.03;38.84;101477.53;10376200;28;20079;-70
2023/06/11 08:30:34;;;;;;;9.65;8.95;;;;;;;33.35;37.74;101466.81;10374103;28;20057;-71
2023/06/11 08:35:34;;;;;;;8.75;7.95;;;;;;;33.50;37.58;101469.06;10374678;28;20061;-71
2023/06/11 08:40:39;;;;;;;10.80;9.70;;;;;;;33.60;37.28;101469.81;10377902;28;20155;-71
2023/06/11 08:45:39;;;;;;;9.77;8.93;;;;;;;34.14;37.88;101467.13;10373869;28;20029;-70
2023/06/11 08:50:40;;;;;;;9.02;8.32;;;;;;;34.02;36.82;101463.09;10374765;28;20145;-70
2023/06/11 08:55:41;;;;;;;9.63;8.70;;;;;;;33.82;37.31;101455.44;10357109;28;20053;-70
2023/06/11 09:00:41;;;;;;;17.00;9.57;;;;;;;33.80;37.31;101452.19;10373364;28;20036;-70
2023/06/11 09:05:42;;;;;;;8.45;7.85;;;;;;;33.74;37.08;101456.34;10373002;28;20403;-71
2023/06/11 09:10:50;;;;;;;8.85;7.97;;;;;;;33.73;37.57;101449.09;10372376;28;20215;-70
2023/06/11 09:15:55;;;;;;;9.15;8.32;;;;;;;34.16;37.12;101443.13;10372306;28;20022;-71
2023/06/11 09:20:56;;;;;;;9.98;9.00;;;;;;;34.41;35.70;101449.66;10373561;28;20088;-72
2023/06/11 09:25:58;;;;;;;10.68;8.93;;;;;;;34.12;36.76;101442.19;10374053;28;20046;-69
2023/06/11 09:30:59;;;;;;;9.65;8.70;;;;;;;35.12;36.08;101454.19;10371935;28;20061;-72
2023/06/11 09:36:00;;;;;;;8.13;7.45;;;;;;;35.00;35.46;101451.31;10374720;28;20167;-71
2023/06/11 09:41:00;;;;;;;7.45;6.85;;;;;;;34.81;35.57;101463.13;10377575;28;20489;-71
2023/06/11 09:46:02;;;;;;;9.23;8.40;;;;;;;34.51;34.72;101459.66;10355718;28;20034;-71
2023/06/11 09:51:03;;;;;;;9.38;8.07;;;;;;;34.34;36.42;101468.28;10373667;28;20041;-69
2023/06/11 09:56:04;;;;;;;8.13;7.45;;;;;;;34.29;36.11;101466.50;10370925;28;20099;-70
2023/06/11 10:01:04;;;;;;;10.32;7.40;;;;;;;34.31;36.32;101472.59;10356759;28;20547;-72
2023/06/11 10:06:05;;;;;;;9.75;8.30;;;;;;;34.38;35.66;101464.41;10355531;28;20373;-70
2023/06/11 10:11:07;;;;;;;9.07;8.18;;;;;;;34.38;34.90;101467.22;10355137;28;20359;-69
2023/06/11 10:16:08;;;;;;;11.00;7.10;;;;;;;34.30;35.08;101465.31;10355578;28;20034;-71
2023/06/11 10:21:08;;;;;;;8.35;6.68;;;;;;;34.51;34.53;101458.84;10354366;28;20057;-71
2023/06/11 10:26:12;;;;;;;6.85;6.35;;;;;;;34.83;33.95;101455.19;10373352;28;20164;-71
2023/06/11 10:31:26;;;;;;;6.32;5.72;;;;;;;34.78;33.44;101452.63;10371815;28;20137;-71
2023/06/11 10:36:32;;;;;;;6.70;6.18;;;;;;;34.71;34.00;101452.34;10372836;28;20065;-71
2023/06/11 10:41:35;;;;;;;;;;;;;;;34.78;33.05;101447.00;10372170;28;20033;-69
2023/06/11 10:46:47;;;;;;;8.30;7.55;;;;;;;34.64;34.07;101440.84;10373183;28;20226;-70
2023/06/11 10:51:49;;;;;;;6.15;5.75;;;;;;;34.95;33.94;101440.31;10355143;28;20033;-70
2023/06/11 10:56:49;;;;;;;5.60;5.20;;;;;;;35.30;32.59;101443.50;10372664;28;20385;-71
2023/06/11 11:01:53;;;;;;;7.85;7.05;;;;;;;35.11;32.35;101446.09;10356257;28;20034;-71
2023/06/11 11:07:03;;;;;;;7.50;6.72;;;;;;;34.81;33.64;101443.44;10354875;28;20057;-71
2023/06/11 11:12:04;;;;;;;19.25;7.93;;;;;;;34.80;33.46;101450.25;10371494;28;20088;-69
2023/06/11 11:17:04;;;;;;;7.30;6.70;;;;;;;35.26;34.22;101438.91;10369479;28;20042;-71
2023/06/11 11:22:05;;;;;;;7.88;6.63;;;;;;;35.21;32.45;101431.53;10353145;28;20112;-69
2023/06/11 11:27:06;;;;;;;6.15;5.65;;;;;;;34.51;33.84;101436.34;10370329;28;20030;-70
2023/06/11 11:32:07;;;;;;;8.55;7.85;;;;;;;34.62;33.84;101451.63;10373538;28;20193;-71
2023/06/11 11:37:07;;;;;;;6.72;6.07;;;;;;;34.88;32.94;101428.81;10377333;28;20085;-71
2023/06/11 11:42:11;;;;;;;8.00;7.15;;;;;;;34.87;32.50;101427.97;10377260;28;20084;-72
2023/06/11 11:47:11;;;;;;;6.70;6.18;;;;;;;34.47;33.36;101420.16;10377919;28;20044;-70
2023/06/11 11:52:12;;;;;;;6.80;6.20;;;;;;;34.81;31.77;101432.19;10376258;28;20057;-72
2023/06/11 11:57:13;;;;;;;6.00;5.55;;;;;;;34.93;32.12;101411.69;10376469;28;20038;-71
2023/06/11 12:02:14;;;;;;;10.95;5.32;;;;;;;35.71;32.89;101415.44;10375204;28;20042;-70
2023/06/11 12:07:15;;;;;;;7.25;6.57;;;;;;;36.41;31.70;101415.84;10376660;28;20105;-70
2023/06/11 12:12:15;;;;;;;7.43;6.30;;;;;;;36.23;31.37;101411.72;10376622;28;20048;-73
2023/06/11 12:17:16;;;;;;;5.95;5.47;;;;;;;34.76;32.33;101409.94;10376535;28;20042;-71
2023/06/11 12:22:16;;;;;;;8.68;5.90;;;;;;;35.74;31.71;101400.59;10374889;28;20049;-71
2023/06/11 12:27:17;;;;;;;5.10;4.63;;;;;;;35.50;30.29;101398.66;10374034;28;20201;-71
2023/06/11 12:32:18;;;;;;;5.97;5.38;;;;;;;33.53;33.08;101400.97;10374590;28;20084;-71
2023/06/11 12:37:18;;;;;;;6.25;5.63;;;;;;;35.13;31.71;101390.25;10391024;28;20064;-70
2023/06/11 12:42:21;;;;;;;11.85;5.60;;;;;;;34.47;31.62;101389.22;10375447;28;20030;-70
2023/06/11 12:47:22;;;;;;;6.05;5.45;;;;;;;35.67;30.70;101386.31;10375074;28;20038;-71
2023/06/11 12:52:22;;;;;;;5.18;4.65;;;;;;;34.51;31.41;101392.16;10391282;28;20042;-73
2023/06/11 12:57:23;;;;;;;6.18;5.15;;;;;;;34.89;31.15;101386.25;10374701;28;20512;-72
2023/06/11 13:02:23;;;;;;;5.07;4.77;;;;;;;35.61;30.02;101385.72;10373868;28;20343;-70
2023/06/11 13:07:23;;;;;;;5.10;4.72;;;;;;;34.46;30.50;101393.22;10374646;28;20403;-70
2023/06/11 13:12:27;;;;;;;6.45;5.90;;;;;;;34.18;31.92;101383.78;10373628;28;20034;-71
2023/06/11 13:17:27;;;;;;;5.15;4.75;;;;;;;33.32;32.59;101391.69;10357114;28;20026;-70
2023/06/11 13:22:28;;;;;;;14.70;6.30;;;;;;;33.63;32.97;101379.28;10373189;28;20046;-70
2023/06/11 13:27:28;;;;;;;7.25;5.13;;;;;;;34.94;30.42;101374.78;10375012;28;20469;-71
2023/06/11 13:32:28;;;;;;;5.53;4.63;;;;;;;34.37;30.66;101366.38;10376504;28;20073;-71
2023/06/11 13:37:29;;;;;;;5.38;4.88;;;;;;;33.56;31.44;101371.41;10376351;28;20479;-70
2023/06/11 13:42:29;;;;;;;7.25;5.57;;;;;;;32.91;31.33;101359.56;10375718;28;20034;-71
2023/06/11 13:47:30;;;;;;;6.47;5.97;;;;;;;33.87;31.91;101356.91;10374746;28;20030;-72
2023/06/11 13:52:31;;;;;;;5.70;5.15;;;;;;;34.34;30.48;101367.88;10373022;28;20091;-72
2023/06/11 13:57:31;;;;;;;8.30;5.32;;;;;;;34.83;30.42;101369.94;10372981;28;20148;-73
2023/06/11 14:02:32;;;;;;;6.82;5.65;;;;;;;34.93;28.69;101356.22;10372884;28;20037;-70
2023/06/11 14:07:32;;;;;;;10.63;4.78;;;;;;;34.59;30.14;101353.88;10371559;28;20478;-69
2023/06/11 14:12:33;;;;;;;6.38;5.78;;;;;;;34.59;29.89;101351.06;10355332;28;20129;-70
2023/06/11 14:17:39;;;;;;;6.05;5.55;;;;;;;34.27;29.95;101350.78;10370505;28;20085;-69
2023/06/11 14:22:40;;;;;;;5.63;5.22;;;;;;;34.30;30.15;101350.03;10371671;28;20022;-72
2023/06/11 14:27:40;;;;;;;5.82;5.30;;;;;;;33.16;30.67;101345.75;10372671;28;20097;-71
2023/06/11 14:32:41;;;;;;;4.53;4.20;;;;;;;32.92;31.12;101343.53;10371145;28;20045;-71
2023/06/11 14:37:41;;;;;;;5.72;5.32;;;;;;;32.31;32.02;101347.41;10355331;28;20075;-71
2023/06/11 14:42:42;;;;;;;5.03;4.57;;;;;;;31.60;32.86;101338.59;10372342;28;20065;-71
2023/06/11 14:47:42;;;;;;;8.90;5.03;;;;;;;31.90;32.36;101339.56;10353974;28;20279;-70
2023/06/11 14:52:43;;;;;;;4.45;4.15;;;;;;;33.06;31.35;101327.31;10353713;28;20560;-71
2023/06/11 14:57:43;;;;;;;5.90;5.05;;;;;;;33.52;30.66;101329.16;10370683;28;20042;-70
2023/06/11 15:02:43;;;;;;;11.20;4.87;;;;;;;33.45;30.03;101322.41;10372248;28;20081;-71
2023/06/11 15:07:44;;;;;;;3.25;3.05;;;;;;;33.25;29.85;101316.47;10377942;28;20282;-71
2023/06/11 15:12:44;;;;;;;3.50;3.25;;;;;;;33.26;29.80;101303.25;10378521;28;20448;-71
2023/06/11 15:17:45;;;;;;;12.10;4.13;;;;;;;33.40;29.67;101314.19;10360571;28;20038;-71
2023/06/11 15:22:45;;;;;;;4.20;3.83;;;;;;;33.37;29.56;101307.25;10379302;28;20050;-71
2023/06/11 15:27:49;;;;;;;3.88;3.58;;;;;;;33.34;29.27;101305.16;10378410;28;20436;-71
2023/06/11 15:32:50;;;;;;;4.90;4.07;;;;;;;33.41;29.58;101302.63;10377980;28;20129;-70
2023/06/11 15:37:50;;;;;;;4.28;3.97;;;;;;;33.20;29.85;101296.19;10377949;28;20038;-71
2023/06/11 15:42:51;;;;;;;4.43;4.03;;;;;;;32.68;30.57;101307.72;10376256;28;20054;-71
2023/06/11 15:47:51;;;;;;;6.30;5.40;;;;;;;32.52;29.79;101294.25;10392364;28;20418;-71
2023/06/11 15:52:51;;;;;;;4.97;4.43;;;;;;;32.33;29.65;101302.22;10375855;28;20044;-69
2023/06/11 15:57:52;;;;;;;7.53;4.93;;;;;;;32.63;30.17;101287.09;10343890;28;20049;-71
2023/06/11 16:02:52;;;;;;;10.93;4.80;;;;;;;32.63;29.83;101297.50;10377750;28;20029;-72
2023/06/11 16:07:53;;;;;;;4.03;3.75;;;;;;;32.45;30.45;101290.31;10374970;28;20393;-70
2023/06/11 16:12:53;;;;;;;4.50;3.92;;;;;;;32.26;31.09;101288.75;10377747;28;20061;-70
2023/06/11 16:17:53;;;;;;;8.27;4.33;;;;;;;32.26;31.74;101288.75;10378036;28;20052;-72
2023/06/11 16:22:54;;;;;;;6.05;4.30;;;;;;;31.95;31.73;101289.81;10377443;28;20611;-71
2023/06/11 16:27:54;;;;;;;6.22;5.13;;;;;;;31.50;32.75;101290.19;10375633;28;20057;-71
2023/06/11 16:32:55;;;;;;;8.68;4.60;;;;;;;31.29;32.87;101294.75;10375879;28;20073;-71
2023/06/11 16:37:55;;;;;;;5.70;4.43;;;;;;;30.91;33.11;101289.75;10375038;28;20033;-71
2023/06/11 16:42:56;;;;;;;4.18;3.67;;;;;;;30.61;33.34;101299.84;10391991;28;20447;-69
2023/06/11 16:47:57;;;;;;;5.00;4.38;;;;;;;30.46;32.99;101273.16;10375356;28;20473;-70
2023/06/11 16:52:57;;;;;;;4.68;4.28;;;;;;;30.31;33.25;101277.22;10391167;28;20296;-70
2023/06/11 16:57:57;;;;;;;3.83;3.53;;;;;;;30.17;33.59;101287.63;10390248;28;20050;-71
2023/06/11 17:02:58;;;;;;;7.60;5.38;;;;;;;30.01;33.15;101278.00;10374005;28;20132;-70
2023/06/11 17:07:58;;;;;;;7.20;3.75;;;;;;;30.01;32.89;101281.63;10374661;28;20076;-69
2023/06/11 17:12:59;;;;;;;4.05;3.75;;;;;;;30.07;32.46;101282.31;10373790;28;20456;-70
2023/06/11 17:17:59;;;;;;;3.92;3.53;;;;;;;30.01;32.93;101283.59;10390280;28;20182;-69
2023/06/11 17:23:01;;;;;;;4.35;3.90;;;;;;;30.07;32.50;101291.53;10374206;28;20065;-71
2023/06/11 17:28:01;;;;;;;4.50;4.20;;;;;;;29.99;33.28;101299.84;10371486;28;20058;-70
2023/06/11 17:33:03;;;;;;;27.58;5.07;;;;;;;29.71;33.13;101288.84;10372390;28;20033;-70
2023/06/11 17:38:03;;;;;;;4.95;4.55;;;;;;;29.56;33.05;101290.00;10371825;28;20080;-70
2023/06/11 17:43:04;;;;;;;4.22;3.92;;;;;;;29.62;33.29;101291.56;10355488;28;20069;-70
2023/06/11 17:48:04;;;;;;;8.75;4.35;;;;;;;29.63;33.14;101290.41;10387597;28;20041;-71
2023/06/11 17:53:05;;;;;;;8.05;4.60;;;;;;;29.53;33.30;101289.81;10372513;28;20046;-71
2023/06/11 17:58:05;;;;;;;5.93;5.33;;;;;;;29.48;33.22;101295.50;10373522;28;20062;-70
2023/06/11 18:03:06;;;;;;;4.47;4.18;;;;;;;29.39;33.07;101287.91;10372274;28;20631;-69
2023/06/11 18:08:06;;;;;;;8.63;5.78;;;;;;;29.38;33.11;101289.03;10354425;28;20117;-71
2023/06/11 18:13:07;;;;;;;4.95;4.45;;;;;;;29.28;32.68;101291.25;10372025;28;20041;-71
2023/06/11 18:18:07;;;;;;;4.43;4.03;;;;;;;29.26;33.13;101285.13;10372170;28;20049;-70
2023/06/11 18:23:07;;;;;;;9.00;4.18;;;;;;;29.12;33.77;101288.78;10370607;28;20492;-70
2023/06/11 18:28:08;;;;;;;4.95;4.55;;;;;;;28.95;34.02;101283.84;10369557;28;20101;-71
2023/06/11 18:33:08;;;;;;;6.53;4.78;;;;;;;28.80;34.27;101283.34;10370500;28;20120;-69
2023/06/11 18:38:09;;;;;;;5.57;4.93;;;;;;;28.77;34.36;101284.78;10371555;28;20041;-69
2023/06/11 18:43:09;;;;;;;5.10;4.70;;;;;;;28.65;34.65;101287.28;10370790;28;20093;-70
2023/06/11 18:48:10;;;;;;;12.18;5.25;;;;;;;28.61;34.88;101300.19;10370449;28;20034;-71
2023/06/11 18:53:10;;;;;;;7.10;4.45;;;;;;;28.47;34.73;101297.41;10370287;28;20042;-68
2023/06/11 18:58:11;;;;;;;4.53;4.22;;;;;;;28.35;35.06;101303.44;10370918;28;20038;-71
2023/06/11 19:03:11;;;;;;;5.43;3.95;;;;;;;28.21;35.51;101310.97;10353344;28;20041;-71
2023/06/11 19:08:11;;;;;;;4.65;4.25;;;;;;;28.15;35.29;101314.97;10370002;28;20116;-70
2023/06/11 19:13:13;;;;;;;10.35;5.43;;;;;;;27.99;36.05;101312.47;10370892;28;20477;-69
2023/06/11 19:18:14;;;;;;;7.72;5.82;;;;;;;27.89;35.88;101315.41;10370010;28;20076;-70
2023/06/11 19:23:14;;;;;;;9.73;5.65;;;;;;;27.71;36.48;101314.28;10371845;28;20145;-69
2023/06/11 19:28:15;;;;;;;10.35;5.10;;;;;;;27.50;36.69;101316.53;10370569;28;20408;-70
2023/06/11 19:33:15;;;;;;;9.35;5.72;;;;;;;27.28;38.02;101328.28;10369613;28;20037;-71
2023/06/11 19:38:16;;;;;;;5.22;4.82;;;;;;;27.10;37.72;101332.66;10372694;28;20442;-71
2023/06/11 19:43:16;;;;;;;5.97;5.35;;;;;;;26.91;38.38;101334.59;10386548;28;20116;-70
2023/06/11 19:48:19;;;;;;;5.03;4.50;;;;;;;26.72;39.28;101330.94;10370263;28;20123;-71
2023/06/11 19:53:19;;;;;;;7.38;5.25;;;;;;;26.66;38.56;101347.66;10373541;28;20045;-71
2023/06/11 19:58:20;;;;;;;5.88;5.38;;;;;;;26.53;39.24;101345.59;10392779;28;20037;-71
2023/06/11 20:03:20;;;;;;;9.80;5.13;;;;;;;26.43;39.41;101362.31;10375712;28;20338;-71
2023/06/11 20:08:20;;;;;;;11.52;5.28;;;;;;;26.32;38.95;101369.91;10376636;28;20057;-70
2023/06/11 20:13:21;;;;;;;4.25;4.03;;;;;;;26.20;39.71;101375.88;10376204;28;20165;-70
2023/06/11 20:18:21;;;;;;;4.90;4.50;;;;;;;26.10;40.91;101375.97;10376557;28;20388;-75
2023/06/11 20:23:22;;;;;;;10.60;5.10;;;;;;;26.00;41.20;101386.28;10381090;28;20073;-75
2023/06/11 20:28:22;;;;;;;5.95;5.25;;;;;;;25.88;41.72;101397.78;10360504;28;20053;-75
2023/06/11 20:33:23;;;;;;;8.93;6.05;;;;;;;25.78;42.74;101393.06;10397431;28;20061;-73
2023/06/11 20:38:26;;;;;;;5.15;4.75;;;;;;;25.73;42.67;101390.34;10382639;28;20068;-71
2023/06/11 20:43:26;;;;;;;5.53;5.03;;;;;;;25.69;42.91;101398.44;10344867;28;20091;-71
2023/06/11 20:48:27;;;;;;;7.43;6.15;;;;;;;25.62;44.46;101392.38;10377956;28;20026;-75
2023/06/11 20:53:27;;;;;;;13.60;6.30;;;;;;;25.52;44.53;101390.47;10376207;28;20139;-77
2023/06/11 20:58:27;;;;;;;6.63;6.13;;;;;;;25.49;45.03;101404.06;10375510;28;20156;-77
2023/06/11 21:03:28;;;;;;;7.18;6.45;;;;;;;25.48;44.69;101392.16;10357966;28;20042;-78
2023/06/11 21:08:28;;;;;;;9.18;6.78;;;;;;;25.37;45.42;101401.66;10375949;28;20444;-75
2023/06/11 21:13:29;;;;;;;9.15;6.18;;;;;;;25.30;45.70;101401.13;10376974;28;20034;-79
2023/06/11 21:18:30;;;;;;;12.63;5.97;;;;;;;25.18;45.96;101406.19;10382568;28;20334;-77
2023/06/11 21:23:30;;;;;;;9.55;5.18;;;;;;;25.11;46.47;101409.22;10377545;28;20029;-72
2023/06/11 21:28:30;;;;;;;6.93;6.28;;;;;;;25.08;46.60;101415.34;10374679;28;20058;-70
2023/06/11 21:33:31;;;;;;;6.82;6.32;;;;;;;25.03;46.42;101405.09;10373642;28;20173;-71
2023/06/11 21:38:31;;;;;;;7.70;6.97;;;;;;;24.94;46.81;101408.72;10372073;28;20083;-71
2023/06/11 21:43:32;;;;;;;8.63;6.47;;;;;;;24.88;46.32;101409.84;10357055;28;20030;-70
2023/06/11 21:48:32;;;;;;;6.35;5.75;;;;;;;24.76;47.29;101416.53;10372558;28;20188;-71
2023/06/11 21:53:32;;;;;;;6.45;5.95;;;;;;;24.72;47.95;101422.88;10371043;28;20048;-70
2023/06/11 21:58:33;;;;;;;7.50;6.80;;;;;;;24.61;48.27;101421.25;10372333;28;20122;-70
2023/06/11 22:03:33;;;;;;;8.18;7.20;;;;;;;24.52;48.26;101418.22;10370990;28;20041;-72
2023/06/11 22:08:34;;;;;;;6.70;6.05;;;;;;;24.42;48.22;101424.59;10372246;28;20041;-74
2023/06/11 22:13:36;;;;;;;7.10;6.47;;;;;;;24.28;48.54;101434.53;10371711;28;20061;-70
2023/06/11 22:18:38;;;;;;;7.15;6.10;;;;;;;24.17;48.64;101436.47;10372604;28;20030;-71
2023/06/11 22:23:38;;;;;;;6.57;6.07;;;;;;;24.09;48.28;101426.78;10355845;28;20041;-71
2023/06/11 22:28:39;;;;;;;6.43;5.82;;;;;;;24.10;47.28;101422.06;10371819;28;20362;-70
2023/06/11 22:33:39;;;;;;;9.60;5.97;;;;;;;24.02;47.06;101423.44;10372322;28;20037;-71
2023/06/11 22:38:40;;;;;;;5.95;5.45;;;;;;;23.99;46.30;101431.44;10372752;28;20041;-70
2023/06/11 22:43:40;;;;;;;5.22;4.75;;;;;;;23.90;46.38;101425.66;10372225;28;20026;-71
2023/06/11 22:48:41;;;;;;;7.00;6.43;;;;;;;23.89;46.00;101423.97;10372165;28;20030;-70
2023/06/11 22:53:41;;;;;;;5.47;4.78;;;;;;;23.80;45.85;101428.38;10372632;28;20069;-72
2023/06/11 22:58:42;;;;;;;5.32;4.88;;;;;;;23.75;45.56;101426.44;10353498;28;20043;-71
2023/06/11 23:03:42;;;;;;;6.63;4.63;;;;;;;23.69;45.27;101435.00;10372299;28;20454;-71